createdAt,value
2023-05-02T00:00:13.481Z,13.40
2023-05-02T00:02:41.698Z,13.40
2023-05-02T00:05:10.243Z,13.40
2023-05-02T00:07:38.566Z,13.40
2023-05-02T00:10:08.229Z,13.40
2023-05-02T00:12:36.308Z,13.40
2023-05-02T00:15:07.099Z,13.50
2023-05-02T00:17:35.126Z,13.50
2023-05-02T00:20:04.464Z,13.50
2023-05-02T00:22:32.815Z,13.50
2023-05-02T00:25:00.922Z,13.50
2023-05-02T00:27:28.993Z,13.50
2023-05-02T00:29:57.656Z,13.40
2023-05-02T00:32:28.239Z,13.40
2023-05-02T00:34:56.616Z,13.40
2023-05-02T00:37:29.011Z,13.40
2023-05-02T00:39:57.300Z,13.40
2023-05-02T00:42:25.575Z,13.40
2023-05-02T00:44:53.581Z,13.40
2023-05-02T00:47:21.922Z,13.40
2023-05-02T00:49:52.546Z,13.40
2023-05-02T00:52:20.943Z,13.30
2023-05-02T00:54:49.018Z,13.30
2023-05-02T00:57:17.073Z,13.30
2023-05-02T00:59:45.225Z,13.30
2023-05-02T01:02:24.157Z,13.30
2023-05-02T01:05:03.694Z,13.20
2023-05-02T01:07:55.531Z,13.20
2023-05-02T01:10:31.418Z,13.20
2023-05-02T01:13:13.324Z,13.20
2023-05-02T01:15:42.907Z,13.20
2023-05-02T01:18:14.744Z,13.20
2023-05-02T01:20:47.524Z,13.20
2023-05-02T01:23:26.076Z,13.20
2023-05-02T01:26:07.900Z,13.20
2023-05-02T01:29:04.329Z,13.20
2023-05-02T01:31:37.196Z,13.20
2023-05-02T01:34:07.881Z,13.20
2023-05-02T01:36:37.148Z,13.20
2023-05-02T01:39:08.618Z,13.20
2023-05-02T01:41:38.787Z,13.10
2023-05-02T01:44:08.920Z,13.20
2023-05-02T01:46:41.633Z,13.10
2023-05-02T01:49:10.320Z,13.10
2023-05-02T01:51:45.171Z,13.10
2023-05-02T01:54:14.975Z,13.10
2023-05-02T01:56:45.601Z,13.10
2023-05-02T01:59:18.161Z,13.10
2023-05-02T02:01:48.729Z,13.00
2023-05-02T02:04:17.816Z,13.00
2023-05-02T02:06:54.726Z,13.00
2023-05-02T02:09:23.017Z,13.00
2023-05-02T02:11:57.430Z,13.00
2023-05-02T02:14:28.826Z,13.00
2023-05-02T02:17:02.867Z,13.00
2023-05-02T02:19:31.720Z,12.90
2023-05-02T02:22:00.383Z,12.90
2023-05-02T02:24:29.987Z,12.90
2023-05-02T02:26:58.044Z,12.90
2023-05-02T02:29:26.104Z,12.90
2023-05-02T02:31:54.131Z,12.90
2023-05-02T02:34:23.705Z,12.90
2023-05-02T02:36:58.157Z,12.80
2023-05-02T02:39:40.751Z,12.80
2023-05-02T02:42:15.453Z,12.70
2023-05-02T02:44:53.596Z,12.70
2023-05-02T02:47:28.504Z,12.70
2023-05-02T02:50:12.518Z,12.70
2023-05-02T02:52:51.430Z,12.70
2023-05-02T02:55:29.653Z,12.60
2023-05-02T02:58:03.577Z,12.60
2023-05-02T03:00:34.220Z,12.50
2023-05-02T03:03:02.362Z,12.50
2023-05-02T03:05:34.126Z,12.50
2023-05-02T03:08:02.375Z,12.50
2023-05-02T03:10:30.423Z,12.50
2023-05-02T03:12:58.441Z,12.40
2023-05-02T03:16:00.030Z,12.40
2023-05-02T03:18:28.090Z,12.40
2023-05-02T03:20:57.516Z,12.40
2023-05-02T03:23:25.656Z,12.40
2023-05-02T03:25:53.714Z,12.40
2023-05-02T03:28:21.742Z,12.40
2023-05-02T03:30:49.799Z,12.30
2023-05-02T03:33:18.383Z,12.30
2023-05-02T03:35:46.400Z,12.30
2023-05-02T03:38:15.833Z,12.30
2023-05-02T03:40:43.887Z,12.20
2023-05-02T03:43:12.595Z,12.20
2023-05-02T03:45:40.678Z,12.20
2023-05-02T03:48:08.784Z,12.20
2023-05-02T03:50:36.848Z,12.20
2023-05-02T03:53:04.903Z,12.20
2023-05-02T03:55:34.320Z,12.20
2023-05-02T03:58:02.663Z,12.20
2023-05-02T04:00:31.093Z,12.10
2023-05-02T04:02:59.208Z,12.10
2023-05-02T04:05:27.325Z,12.10
2023-05-02T04:07:55.478Z,12.00
2023-05-02T04:10:23.576Z,12.00
2023-05-02T04:12:52.969Z,11.90
2023-05-02T04:15:21.174Z,11.90
2023-05-02T04:17:49.269Z,11.90
2023-05-02T04:20:17.451Z,12.00
2023-05-02T04:22:46.330Z,12.00
2023-05-02T04:25:14.438Z,12.00
2023-05-02T04:27:42.498Z,12.00
2023-05-02T04:30:12.619Z,11.90
2023-05-02T04:32:40.882Z,11.80
2023-05-02T04:35:09.938Z,11.80
2023-05-02T04:37:38.137Z,11.80
2023-05-02T04:40:08.142Z,11.80
2023-05-02T04:42:36.170Z,11.80
2023-05-02T04:45:04.419Z,11.80
2023-05-02T04:47:33.937Z,11.80
2023-05-02T04:50:02.220Z,11.80
2023-05-02T04:52:31.602Z,11.80
2023-05-02T04:54:59.641Z,11.80
2023-05-02T04:57:27.700Z,11.80
2023-05-02T04:59:55.757Z,11.90
2023-05-02T05:02:25.841Z,11.90
2023-05-02T05:04:55.403Z,11.90
2023-05-02T05:07:23.497Z,12.00
2023-05-02T05:09:53.292Z,11.90
2023-05-02T05:12:21.613Z,11.90
2023-05-02T05:14:50.045Z,11.90
2023-05-02T05:17:18.246Z,11.90
2023-05-02T05:19:46.295Z,11.90
2023-05-02T05:22:15.867Z,11.90
2023-05-02T05:24:44.072Z,11.90
2023-05-02T05:27:12.337Z,12.00
2023-05-02T05:29:40.358Z,12.00
2023-05-02T05:32:08.441Z,11.90
2023-05-02T05:34:36.496Z,12.00
2023-05-02T05:37:04.656Z,12.00
2023-05-02T05:39:34.517Z,12.10
2023-05-02T05:42:02.633Z,12.30
2023-05-02T05:44:31.671Z,12.40
2023-05-02T05:46:59.749Z,12.60
2023-05-02T05:49:27.806Z,12.70
2023-05-02T05:51:55.954Z,12.80
2023-05-02T05:54:24.751Z,12.80
2023-05-02T05:56:54.133Z,12.90
2023-05-02T05:59:22.266Z,13.00
2023-05-02T06:01:50.737Z,13.10
2023-05-02T06:04:18.794Z,13.20
2023-05-02T06:06:46.971Z,13.20
2023-05-02T06:09:15.106Z,13.20
2023-05-02T06:11:43.417Z,13.20
2023-05-02T06:14:12.884Z,13.20
2023-05-02T06:16:41.144Z,13.20
2023-05-02T06:19:09.770Z,13.20
2023-05-02T06:21:38.443Z,13.20
2023-05-02T06:24:07.096Z,13.20
2023-05-02T06:26:35.131Z,13.20
2023-05-02T06:29:03.689Z,13.20
2023-05-02T06:31:33.168Z,13.10
2023-05-02T06:34:01.211Z,13.10
2023-05-02T06:36:29.265Z,13.00
2023-05-02T06:38:57.281Z,13.00
2023-05-02T06:41:25.342Z,13.00
2023-05-02T06:43:53.441Z,12.90
2023-05-02T06:46:21.603Z,12.90
2023-05-02T06:48:51.498Z,12.80
2023-05-02T06:51:21.194Z,12.80
2023-05-02T06:53:49.230Z,12.70
2023-05-02T06:56:17.411Z,12.70
2023-05-02T06:58:45.472Z,12.60
2023-05-02T07:01:13.632Z,12.60
2023-05-02T07:03:41.727Z,12.40
2023-05-02T07:06:11.266Z,12.40
2023-05-02T07:08:39.357Z,12.30
2023-05-02T07:11:07.358Z,12.30
2023-05-02T07:13:35.428Z,12.20
2023-05-02T07:16:03.632Z,12.20
2023-05-02T07:18:31.807Z,12.20
2023-05-02T07:21:01.347Z,12.20
2023-05-02T07:23:30.898Z,12.30
2023-05-02T07:25:58.943Z,12.40
2023-05-02T07:28:27.338Z,12.40
2023-05-02T07:30:55.337Z,12.50
2023-05-02T07:33:23.849Z,12.60
2023-05-02T07:35:53.109Z,12.60
2023-05-02T07:38:21.491Z,12.70
2023-05-02T07:40:50.889Z,12.80
2023-05-02T07:43:18.902Z,13.00
2023-05-02T07:45:49.832Z,13.20
2023-05-02T07:48:18.047Z,13.30
2023-05-02T07:50:46.186Z,13.40
2023-05-02T07:53:14.221Z,13.40
2023-05-02T07:55:42.266Z,13.50
2023-05-02T07:58:11.685Z,13.60
2023-05-02T08:00:39.755Z,13.80
2023-05-02T08:03:08.085Z,13.80
2023-05-02T08:05:36.201Z,13.80
2023-05-02T08:08:04.274Z,13.80
2023-05-02T08:10:32.336Z,13.80
2023-05-02T08:13:00.391Z,13.90
2023-05-02T08:15:30.389Z,14.00
2023-05-02T08:17:58.485Z,14.10
2023-05-02T08:20:26.632Z,14.20
2023-05-02T08:22:54.636Z,14.30
2023-05-02T08:25:22.868Z,14.60
2023-05-02T08:27:50.894Z,14.80
2023-05-02T08:30:19.038Z,15.00
2023-05-02T08:32:48.621Z,15.10
2023-05-02T08:35:17.152Z,15.20
2023-05-02T08:37:45.190Z,15.10
2023-05-02T08:40:15.284Z,14.80
2023-05-02T08:42:44.995Z,14.70
2023-05-02T08:45:16.739Z,14.50
2023-05-02T08:47:46.825Z,14.40
2023-05-02T08:50:19.177Z,14.40
2023-05-02T08:52:48.405Z,14.40
2023-05-02T08:55:16.768Z,14.40
2023-05-02T08:57:45.391Z,14.40
2023-05-02T09:00:14.680Z,14.40
2023-05-02T09:02:57.492Z,14.50
2023-05-02T09:05:27.335Z,14.70
2023-05-02T09:07:55.789Z,14.70
2023-05-02T09:10:27.227Z,14.70
2023-05-02T09:12:55.626Z,14.80
2023-05-02T09:15:24.245Z,14.90
2023-05-02T09:17:52.389Z,14.90
2023-05-02T09:20:20.602Z,14.90
2023-05-02T09:22:54.428Z,15.00
2023-05-02T09:25:22.807Z,15.20
2023-05-02T09:27:52.528Z,15.20
2023-05-02T09:30:22.553Z,15.20
2023-05-02T09:32:52.396Z,15.20
2023-05-02T09:35:23.960Z,15.10
2023-05-02T09:37:55.370Z,15.10
2023-05-02T09:40:24.659Z,15.00
2023-05-02T09:42:53.472Z,14.80
2023-05-02T09:45:23.009Z,14.60
2023-05-02T09:47:51.461Z,14.50
2023-05-02T09:50:36.169Z,14.40
2023-05-02T09:53:11.903Z,14.30
2023-05-02T09:55:40.149Z,14.30
2023-05-02T09:58:08.241Z,14.30
2023-05-02T10:00:41.220Z,14.40
2023-05-02T10:03:09.861Z,14.30
2023-05-02T10:05:39.893Z,14.30
2023-05-02T10:08:10.391Z,14.40
2023-05-02T10:10:40.707Z,14.40
2023-05-02T10:13:10.203Z,14.40
2023-05-02T10:15:44.781Z,14.20
2023-05-02T10:18:20.598Z,14.30
2023-05-02T10:20:56.975Z,14.40
2023-05-02T10:23:29.297Z,14.40
2023-05-02T10:26:00.127Z,14.50
2023-05-02T10:28:29.050Z,14.50
2023-05-02T10:30:58.427Z,14.60
2023-05-02T10:33:26.786Z,14.80
2023-05-02T10:35:55.065Z,14.90
2023-05-02T10:38:25.011Z,15.20
2023-05-02T10:40:57.598Z,15.50
2023-05-02T10:43:28.314Z,15.60
2023-05-02T10:45:56.468Z,15.70
2023-05-02T10:48:26.793Z,15.80
2023-05-02T10:50:56.543Z,16.00
2023-05-02T10:53:26.326Z,16.10
2023-05-02T10:56:16.647Z,16.00
2023-05-02T10:58:45.660Z,16.20
2023-05-02T11:01:49.173Z,16.40
2023-05-02T11:04:17.429Z,16.60
2023-05-02T11:07:20.012Z,16.80
2023-05-02T11:09:48.265Z,16.90
2023-05-02T11:12:45.848Z,16.70
2023-05-02T11:15:13.946Z,16.50
2023-05-02T11:18:01.020Z,16.50
2023-05-02T11:20:30.122Z,16.50
2023-05-02T11:23:17.063Z,16.50
2023-05-02T11:25:46.639Z,16.40
2023-05-02T11:28:45.160Z,16.00
2023-05-02T11:31:47.018Z,16.00
2023-05-02T11:34:16.331Z,16.00
2023-05-02T11:36:44.651Z,16.10
2023-05-02T11:39:21.068Z,16.10
2023-05-02T11:41:51.117Z,16.20
2023-05-02T11:44:20.887Z,16.30
2023-05-02T11:46:50.199Z,16.30
2023-05-02T11:49:19.061Z,16.10
2023-05-02T11:51:47.232Z,16.20
2023-05-02T11:54:20.605Z,16.40
2023-05-02T11:56:48.851Z,16.50
2023-05-02T11:59:16.962Z,16.50
2023-05-02T12:01:50.992Z,16.60
2023-05-02T12:04:22.053Z,16.70
2023-05-02T12:06:57.016Z,16.90
2023-05-02T12:09:25.190Z,17.10
2023-05-02T12:11:54.038Z,17.20
2023-05-02T12:14:29.505Z,17.30
2023-05-02T12:17:00.456Z,17.50
2023-05-02T12:19:28.879Z,17.50
2023-05-02T12:21:57.066Z,17.70
2023-05-02T12:24:25.302Z,17.90
2023-05-02T12:27:12.181Z,18.20
2023-05-02T12:29:41.807Z,18.20
2023-05-02T12:32:11.766Z,18.30
2023-05-02T12:34:41.141Z,18.10
2023-05-02T12:37:11.869Z,18.00
2023-05-02T12:39:41.740Z,17.60
2023-05-02T12:42:13.922Z,17.30
2023-05-02T12:44:43.636Z,17.10
2023-05-02T12:47:15.325Z,16.90
2023-05-02T12:49:51.143Z,16.80
2023-05-02T12:52:19.478Z,16.60
2023-05-02T12:54:47.840Z,16.60
2023-05-02T12:57:33.929Z,16.50
2023-05-02T13:00:02.547Z,16.50
2023-05-02T13:02:32.494Z,16.50
2023-05-02T13:05:00.665Z,16.50
2023-05-02T13:07:28.875Z,16.50
2023-05-02T13:09:56.964Z,16.60
2023-05-02T13:12:26.597Z,16.60
2023-05-02T13:14:54.649Z,16.60
2023-05-02T13:17:23.015Z,16.60
2023-05-02T13:20:00.751Z,16.60
2023-05-02T13:22:30.003Z,16.40
2023-05-02T13:24:58.070Z,16.40
2023-05-02T13:27:26.820Z,16.50
2023-05-02T13:29:55.192Z,16.60
2023-05-02T13:32:23.723Z,16.50
2023-05-02T13:34:53.539Z,16.40
2023-05-02T13:37:21.867Z,16.30
2023-05-02T13:39:50.038Z,16.20
2023-05-02T13:42:18.113Z,16.20
2023-05-02T13:44:46.206Z,16.40
2023-05-02T13:47:14.270Z,16.40
2023-05-02T13:49:42.348Z,16.30
2023-05-02T13:52:12.031Z,16.20
2023-05-02T13:54:40.365Z,16.00
2023-05-02T13:57:08.760Z,15.90
2023-05-02T13:59:36.856Z,15.90
2023-05-02T14:02:05.047Z,15.90
2023-05-02T14:04:33.283Z,15.80
2023-05-02T14:07:01.371Z,15.80
2023-05-02T14:09:31.368Z,15.70
2023-05-02T14:12:00.177Z,15.60
2023-05-02T14:14:28.191Z,15.50
2023-05-02T14:16:56.449Z,15.40
2023-05-02T14:19:24.598Z,15.50
2023-05-02T14:21:52.743Z,15.40
2023-05-02T14:24:21.013Z,15.40
2023-05-02T14:26:50.767Z,15.40
2023-05-02T14:29:20.557Z,15.40
2023-05-02T14:31:49.690Z,15.40
2023-05-02T14:34:17.877Z,15.40
2023-05-02T14:36:45.951Z,15.40
2023-05-02T14:39:14.196Z,15.40
2023-05-02T14:41:42.229Z,15.40
2023-05-02T14:44:11.671Z,15.30
2023-05-02T14:46:40.068Z,15.40
2023-05-02T14:49:08.404Z,15.40
2023-05-02T14:51:39.216Z,15.40
2023-05-02T14:54:07.526Z,15.50
2023-05-02T14:56:35.677Z,15.50
2023-05-02T14:59:03.861Z,15.50
2023-05-02T15:01:33.448Z,15.50
2023-05-02T15:04:05.940Z,15.60
2023-05-02T15:06:35.738Z,15.70
2023-05-02T15:09:05.294Z,15.50
2023-05-02T15:11:33.439Z,15.50
2023-05-02T15:14:01.501Z,15.50
2023-05-02T15:16:30.233Z,15.60
2023-05-02T15:19:02.285Z,15.70
2023-05-02T15:21:31.264Z,15.70
2023-05-02T15:24:00.005Z,15.80
2023-05-02T15:26:28.814Z,15.80
2023-05-02T15:28:56.959Z,15.70
2023-05-02T15:31:25.382Z,15.70
2023-05-02T15:33:53.590Z,15.60
2023-05-02T15:36:27.986Z,15.60
2023-05-02T15:38:56.474Z,15.50
2023-05-02T15:41:27.070Z,15.50
2023-05-02T15:43:55.455Z,15.50
2023-05-02T15:46:23.871Z,15.50
2023-05-02T15:48:52.159Z,15.40
2023-05-02T15:51:20.630Z,15.40
2023-05-02T15:53:52.658Z,15.40
2023-05-02T15:56:21.648Z,15.40
2023-05-02T15:58:50.176Z,15.40
2023-05-02T16:01:18.356Z,15.20
2023-05-02T16:03:47.359Z,15.10
2023-05-02T16:06:16.211Z,15.00
2023-05-02T16:08:44.699Z,15.00
2023-05-02T16:11:14.804Z,15.10
2023-05-02T16:13:42.886Z,15.10
2023-05-02T16:16:11.297Z,15.10
2023-05-02T16:18:39.439Z,15.10
2023-05-02T16:21:07.588Z,15.10
2023-05-02T16:23:35.952Z,15.10
2023-05-02T16:26:04.336Z,15.00
2023-05-02T16:28:34.242Z,14.90
2023-05-02T16:31:07.655Z,14.80
2023-05-02T16:33:35.820Z,14.80
2023-05-02T16:36:04.324Z,14.80
2023-05-02T16:38:32.756Z,14.90
2023-05-02T16:41:05.006Z,14.90
2023-05-02T16:43:34.858Z,14.90
2023-05-02T16:46:03.711Z,14.80
2023-05-02T16:48:31.986Z,14.70
2023-05-02T16:51:01.799Z,14.60
2023-05-02T16:53:32.431Z,14.60
2023-05-02T16:56:00.508Z,14.50
2023-05-02T16:58:29.957Z,14.50
2023-05-02T17:01:01.063Z,14.40
2023-05-02T17:03:30.026Z,14.40
2023-05-02T17:06:01.234Z,14.40
2023-05-02T17:08:30.500Z,14.20
2023-05-02T17:10:58.538Z,14.20
2023-05-02T17:13:26.830Z,14.20
2023-05-02T17:15:55.014Z,14.20
2023-05-02T17:18:26.460Z,14.90
2023-05-02T17:20:55.169Z,14.90
2023-05-02T17:23:23.323Z,14.80
2023-05-02T17:25:52.397Z,14.40
2023-05-02T17:28:21.210Z,14.30
2023-05-02T17:30:53.770Z,14.30
2023-05-02T17:33:22.512Z,14.10
2023-05-02T17:35:52.232Z,13.90
2023-05-02T17:38:20.481Z,13.90
2023-05-02T17:40:48.567Z,13.80
2023-05-02T17:43:16.980Z,13.70
2023-05-02T17:45:45.115Z,13.60
2023-05-02T17:48:13.472Z,13.50
2023-05-02T17:50:42.424Z,13.40
2023-05-02T17:53:12.675Z,13.30
2023-05-02T17:55:40.817Z,13.20
2023-05-02T17:58:09.056Z,13.30
2023-05-02T18:00:37.190Z,13.30
2023-05-02T18:03:05.889Z,13.20
2023-05-02T18:05:39.646Z,13.10
2023-05-02T18:08:07.987Z,13.10
2023-05-02T18:10:39.142Z,13.10
2023-05-02T18:13:07.421Z,13.10
2023-05-02T18:15:36.315Z,13.00
2023-05-02T18:18:04.543Z,13.00
2023-05-02T18:20:32.628Z,13.00
2023-05-02T18:23:01.423Z,12.90
2023-05-02T18:25:29.837Z,12.80
2023-05-02T18:27:59.485Z,12.80
2023-05-02T18:30:27.528Z,12.60
2023-05-02T18:32:55.687Z,12.40
2023-05-02T18:35:24.035Z,12.40
2023-05-02T18:37:52.655Z,12.40
2023-05-02T18:40:21.162Z,12.40
2023-05-02T18:42:49.506Z,12.50
2023-05-02T18:45:19.288Z,12.50
2023-05-02T18:47:47.333Z,12.50
2023-05-02T18:50:15.622Z,12.40
2023-05-02T18:52:44.190Z,12.40
2023-05-02T18:55:12.386Z,12.40
2023-05-02T18:57:40.494Z,12.40
2023-05-02T19:00:09.903Z,12.40
2023-05-02T19:02:39.479Z,12.40
2023-05-02T19:05:07.884Z,12.40
2023-05-02T19:07:38.337Z,12.30
2023-05-02T19:10:07.438Z,12.30
2023-05-02T19:12:35.768Z,12.20
2023-05-02T19:15:05.009Z,12.20
2023-05-02T19:17:33.492Z,12.10
2023-05-02T19:20:03.516Z,12.10
2023-05-02T19:22:34.593Z,12.10
2023-05-02T19:25:03.004Z,12.00
2023-05-02T19:27:31.354Z,12.00
2023-05-02T19:29:59.582Z,12.00
2023-05-02T19:32:27.784Z,11.90
2023-05-02T19:34:56.985Z,11.90
2023-05-02T19:37:26.461Z,11.80
2023-05-02T19:39:54.683Z,11.80
2023-05-02T19:42:22.795Z,11.70
2023-05-02T19:44:51.072Z,11.70
2023-05-02T19:47:19.158Z,11.60
2023-05-02T19:49:47.250Z,11.60
2023-05-02T19:52:15.366Z,11.50
2023-05-02T19:54:44.965Z,11.50
2023-05-02T19:57:13.041Z,11.40
2023-05-02T19:59:41.202Z,11.50
2023-05-02T20:02:09.998Z,11.40
2023-05-02T20:04:38.380Z,11.30
2023-05-02T20:07:06.765Z,11.30
2023-05-02T20:09:34.901Z,11.20
2023-05-02T20:12:04.710Z,11.10
2023-05-02T20:14:32.936Z,11.10
2023-05-02T20:17:02.174Z,11.00
2023-05-02T20:19:32.248Z,11.00
2023-05-02T20:22:00.497Z,10.90
2023-05-02T20:24:28.619Z,10.90
2023-05-02T20:26:56.782Z,10.80
2023-05-02T20:29:26.400Z,10.80
2023-05-02T20:31:56.363Z,10.70
2023-05-02T20:34:24.917Z,10.70
2023-05-02T20:36:53.459Z,10.60
2023-05-02T20:39:21.977Z,10.60
2023-05-02T20:41:50.705Z,10.50
2023-05-02T20:44:20.361Z,10.50
2023-05-02T20:46:51.477Z,10.50
2023-05-02T20:49:19.662Z,10.50
2023-05-02T20:51:47.780Z,10.50
2023-05-02T20:54:15.827Z,10.40
2023-05-02T20:56:44.072Z,10.50
2023-05-02T20:59:12.213Z,10.50
2023-05-02T21:01:40.386Z,10.40
2023-05-02T21:04:10.289Z,10.40
2023-05-02T21:06:38.456Z,10.40
2023-05-02T21:09:09.299Z,10.40
2023-05-02T21:11:37.611Z,10.40
2023-05-02T21:14:05.739Z,10.40
2023-05-02T21:16:33.849Z,10.30
2023-05-02T21:19:01.928Z,10.20
2023-05-02T21:21:31.554Z,10.10
2023-05-02T21:23:59.650Z,10.10
2023-05-02T21:26:27.733Z,10.00
2023-05-02T21:28:55.842Z,10.00
2023-05-02T21:31:24.047Z,10.00
2023-05-02T21:33:53.454Z,10.00
2023-05-02T21:36:21.869Z,9.90
2023-05-02T21:38:51.736Z,9.90
2023-05-02T21:41:19.806Z,9.90
2023-05-02T21:43:47.877Z,9.80
2023-05-02T21:46:16.015Z,9.80
2023-05-02T21:48:44.414Z,9.80
2023-05-02T21:51:14.179Z,9.80
2023-05-02T21:53:42.744Z,9.80
2023-05-02T21:56:12.511Z,9.70
2023-05-02T21:58:40.594Z,9.70
2023-05-02T22:01:08.978Z,9.80
2023-05-02T22:03:37.380Z,9.90
2023-05-02T22:06:06.780Z,9.80
2023-05-02T22:08:36.237Z,9.80
2023-05-02T22:11:08.075Z,9.80
2023-05-02T22:13:38.001Z,9.70
2023-05-02T22:16:06.884Z,9.70
2023-05-02T22:18:35.108Z,9.70
2023-05-02T22:21:03.827Z,9.70
2023-05-02T22:23:32.116Z,9.70
2023-05-02T22:26:00.365Z,9.70
2023-05-02T22:28:28.571Z,9.70
2023-05-02T22:30:58.051Z,9.70
2023-05-02T22:33:26.167Z,9.70
2023-05-02T22:35:54.550Z,9.80
2023-05-02T22:38:22.779Z,9.80
2023-05-02T22:40:50.920Z,9.80
2023-05-02T22:43:18.994Z,9.70
2023-05-02T22:45:47.261Z,9.70
2023-05-02T22:48:16.781Z,9.70
2023-05-02T22:50:47.715Z,9.70
2023-05-02T22:53:16.156Z,9.70
2023-05-02T22:55:44.377Z,9.70
2023-05-02T22:58:12.493Z,9.80
2023-05-02T23:00:40.757Z,9.90
2023-05-02T23:03:08.884Z,9.80
2023-05-02T23:05:38.408Z,9.80
2023-05-02T23:08:06.776Z,9.80
2023-05-02T23:10:35.080Z,9.80
2023-05-02T23:13:03.205Z,9.80
2023-05-02T23:15:31.296Z,9.80
2023-05-02T23:17:59.411Z,9.80
2023-05-02T23:20:27.529Z,9.80
2023-05-02T23:22:57.324Z,9.80
2023-05-02T23:25:28.040Z,9.80
2023-05-02T23:27:56.182Z,9.80
2023-05-02T23:30:24.298Z,9.70
2023-05-02T23:32:52.705Z,9.70
2023-05-02T23:35:21.367Z,9.70
2023-05-02T23:37:50.649Z,9.70
2023-05-02T23:40:20.534Z,9.70
2023-05-02T23:42:48.898Z,9.70
2023-05-02T23:45:17.334Z,9.70
2023-05-02T23:47:45.581Z,9.70
2023-05-02T23:50:13.717Z,9.70
2023-05-02T23:52:41.877Z,9.60
2023-05-02T23:55:10.911Z,9.60
2023-05-02T23:57:40.908Z,9.50
